Helmville, Montana
Current Conditions -  °F | °C
As of 12:53 PM on Wednesday 28 Jan 2015 (Local Time) from KHLN Reporting Station
Few Clouds Few Clouds  
Wind Chill: 51°   Ceiling: Unl
Heat Index: 51°   Visibility: 10mi
Dew Point: 25°   Wind: 20mph
Humidity: 36%   Direction: 260°W
Pressure: 30.23"   Gusts: 25mph
Location:  46.87°N, 112.96°W
Report Text: KHLN 281953Z 26017G22KT 10SM FEW060 11/M04 A3023 RMK AO2 SLP264 T01061039
Loading
Personal Weather Stations






























Interactive Weather Map New forecast layout! Learn more

10-Day Weather Forecast

Advertisements
Track Severe Weather on mobile